createdAt,value
2019-03-18T00:01:33.700Z,3.70
2019-03-18T00:04:02.181Z,3.30
2019-03-18T00:06:30.641Z,3.13
2019-03-18T00:08:59.105Z,3.97
2019-03-18T00:11:27.560Z,3.97
2019-03-18T00:13:55.985Z,3.90
2019-03-18T00:16:24.560Z,3.90
2019-03-18T00:18:53.498Z,3.97
2019-03-18T00:21:21.934Z,4.57
2019-03-18T00:23:50.374Z,4.63
2019-03-18T00:26:18.753Z,4.60
2019-03-18T00:28:47.282Z,4.80
2019-03-18T00:31:15.712Z,5.13
2019-03-18T00:34:20.839Z,4.93
2019-03-18T00:36:49.292Z,4.80
2019-03-18T00:39:17.788Z,5.10
2019-03-18T00:41:46.350Z,5.70
2019-03-18T00:44:14.813Z,4.83
2019-03-18T00:46:43.214Z,5.77
2019-03-18T00:49:11.604Z,4.77
2019-03-18T00:51:40.008Z,6.83
2019-03-18T00:54:08.467Z,4.63
2019-03-18T00:56:36.969Z,5.37
2019-03-18T00:59:05.427Z,4.73
2019-03-18T01:01:33.878Z,5.40
2019-03-18T01:04:02.412Z,5.77
2019-03-18T01:06:30.864Z,5.03
2019-03-18T01:08:59.313Z,4.80
2019-03-18T01:11:27.812Z,6.27
2019-03-18T01:13:56.252Z,5.70
2019-03-18T01:16:24.642Z,5.27
2019-03-18T01:18:53.076Z,4.97
2019-03-18T01:21:21.454Z,5.20
2019-03-18T01:23:49.907Z,4.77
2019-03-18T01:26:18.462Z,5.33
2019-03-18T01:28:46.924Z,5.63
2019-03-18T01:31:15.392Z,5.60
2019-03-18T01:33:43.864Z,6.10
2019-03-18T01:36:12.346Z,6.70
2019-03-18T01:38:40.745Z,5.20
2019-03-18T01:41:09.317Z,5.47
2019-03-18T01:43:37.693Z,5.37
2019-03-18T01:46:08.840Z,5.30
2019-03-18T01:48:37.267Z,5.60
2019-03-18T01:51:32.801Z,5.77
2019-03-18T01:54:01.302Z,5.23
2019-03-18T01:56:29.684Z,5.10
2019-03-18T01:58:58.143Z,6.37
2019-03-18T02:01:26.678Z,6.33
2019-03-18T02:03:55.128Z,6.20
2019-03-18T02:06:23.587Z,6.23
2019-03-18T02:08:52.032Z,6.40
2019-03-18T02:11:20.477Z,7.00
2019-03-18T02:13:48.857Z,6.67
2019-03-18T02:16:17.332Z,7.07
2019-03-18T02:18:45.805Z,7.90
2019-03-18T02:21:14.296Z,7.57
2019-03-18T02:23:42.738Z,7.07
2019-03-18T02:26:11.205Z,7.43
2019-03-18T02:28:39.717Z,7.10
2019-03-18T02:31:08.272Z,6.90
2019-03-18T02:33:36.658Z,7.90
2019-03-18T02:36:05.036Z,7.90
2019-03-18T02:38:33.515Z,7.90
2019-03-18T02:41:01.899Z,7.80
2019-03-18T02:43:30.461Z,7.27
2019-03-18T02:46:09.798Z,7.10
2019-03-18T02:48:29.224Z,8.13
2019-03-18T02:50:57.690Z,7.50
2019-03-18T02:53:26.120Z,9.03
2019-03-18T02:55:54.608Z,10.20
2019-03-18T02:58:23.096Z,9.70
2019-03-18T03:00:51.512Z,10.50
2019-03-18T03:03:20.002Z,9.70
2019-03-18T03:06:15.702Z,10.67
2019-03-18T03:08:44.108Z,12.33
2019-03-18T03:11:12.593Z,11.23
2019-03-18T03:13:41.491Z,10.93
2019-03-18T03:16:25.072Z,12.70
2019-03-18T03:18:41.253Z,13.47
2019-03-18T03:21:09.652Z,12.37
2019-03-18T03:23:38.167Z,14.03
2019-03-18T03:26:06.780Z,13.33
2019-03-18T03:28:35.241Z,13.50
2019-03-18T03:31:03.775Z,14.17
2019-03-18T03:33:32.277Z,14.27
2019-03-18T03:36:00.813Z,14.90
2019-03-18T03:38:29.510Z,14.70
2019-03-18T03:40:57.979Z,16.37
2019-03-18T03:43:26.530Z,16.60
2019-03-18T03:45:55.106Z,16.37
2019-03-18T03:48:23.553Z,17.73
2019-03-18T03:50:52.130Z,17.07
2019-03-18T03:53:20.695Z,18.67
2019-03-18T03:55:49.165Z,17.97
2019-03-18T03:58:17.637Z,19.50
2019-03-18T04:00:46.301Z,19.37
2019-03-18T04:03:14.775Z,19.73
2019-03-18T04:05:43.265Z,19.83
2019-03-18T04:08:11.855Z,20.47
2019-03-18T04:10:40.337Z,20.00
2019-03-18T04:13:13.908Z,20.57
2019-03-18T04:15:42.492Z,20.30
2019-03-18T04:18:11.021Z,22.27
2019-03-18T04:20:39.536Z,20.67
2019-03-18T04:23:08.164Z,22.40
2019-03-18T04:25:36.593Z,22.93
2019-03-18T04:28:05.069Z,24.00
2019-03-18T04:30:34.017Z,23.87
2019-03-18T04:33:02.420Z,24.10
2019-03-18T04:35:30.990Z,24.63
2019-03-18T04:37:59.486Z,24.80
2019-03-18T04:40:27.982Z,24.30
2019-03-18T04:42:57.052Z,26.20
2019-03-18T04:45:25.599Z,23.53
2019-03-18T04:47:54.044Z,23.90
2019-03-18T04:50:22.534Z,21.90
2019-03-18T04:52:51.114Z,25.57
2019-03-18T04:55:19.635Z,21.43
2019-03-18T04:57:48.102Z,23.53
2019-03-18T05:00:18.328Z,24.70
2019-03-18T05:02:46.781Z,24.40
2019-03-18T05:05:24.228Z,24.83
2019-03-18T05:07:52.676Z,25.37
2019-03-18T05:10:21.245Z,24.93
2019-03-18T05:12:49.652Z,24.80
2019-03-18T05:15:18.210Z,25.30
2019-03-18T05:17:46.732Z,27.60
2019-03-18T05:20:15.240Z,25.33
2019-03-18T05:22:43.688Z,26.93
2019-03-18T05:25:12.311Z,27.77
2019-03-18T05:27:41.229Z,27.63
2019-03-18T05:30:09.633Z,27.63
2019-03-18T05:32:38.080Z,27.27
2019-03-18T05:35:06.604Z,27.90
2019-03-18T05:37:35.105Z,26.97
2019-03-18T05:40:03.764Z,27.00
2019-03-18T05:42:32.256Z,26.60
2019-03-18T05:45:00.725Z,28.23
2019-03-18T05:47:38.501Z,27.43
2019-03-18T05:49:59.473Z,26.90
2019-03-18T05:52:27.964Z,29.10
2019-03-18T05:54:56.457Z,29.43
2019-03-18T05:57:26.142Z,28.03
2019-03-18T05:59:54.689Z,28.40
2019-03-18T06:02:23.095Z,29.77
2019-03-18T06:04:51.713Z,30.73
2019-03-18T06:07:20.176Z,30.97
2019-03-18T06:09:48.695Z,30.40
2019-03-18T06:12:17.381Z,29.83
2019-03-18T06:14:45.852Z,29.00
2019-03-18T06:17:14.330Z,29.17
2019-03-18T06:19:43.725Z,25.83
2019-03-18T06:22:12.170Z,27.90
2019-03-18T06:24:40.614Z,25.50
2019-03-18T06:27:09.048Z,23.40
2019-03-18T06:29:37.656Z,28.53
2019-03-18T06:32:06.064Z,29.20
2019-03-18T06:34:34.564Z,30.33
2019-03-18T06:37:02.968Z,32.10
2019-03-18T06:39:31.349Z,30.73
2019-03-18T06:41:59.931Z,28.17
2019-03-18T06:44:28.427Z,30.83
2019-03-18T06:46:57.002Z,31.97
2019-03-18T06:49:26.800Z,31.60
2019-03-18T06:51:55.333Z,29.50
2019-03-18T06:54:23.825Z,29.20
2019-03-18T06:56:52.324Z,27.70
2019-03-18T06:59:20.805Z,26.20
2019-03-18T07:01:49.230Z,23.97
2019-03-18T07:04:17.749Z,25.13
2019-03-18T07:06:46.476Z,24.87
2019-03-18T07:09:15.080Z,26.07
2019-03-18T07:11:43.605Z,24.10
2019-03-18T07:14:12.137Z,23.73
2019-03-18T07:16:40.588Z,24.70
2019-03-18T07:19:09.137Z,25.30
2019-03-18T07:21:37.561Z,25.13
2019-03-18T07:24:06.030Z,22.93
2019-03-18T07:26:34.536Z,23.33
2019-03-18T07:29:02.945Z,25.27
2019-03-18T07:31:31.348Z,24.83
2019-03-18T07:34:00.071Z,24.60
2019-03-18T07:36:28.585Z,24.70
2019-03-18T07:38:57.049Z,24.10
2019-03-18T07:41:25.471Z,24.27
2019-03-18T07:43:53.928Z,25.30
2019-03-18T07:46:22.305Z,24.40
2019-03-18T07:48:51.144Z,23.43
2019-03-18T07:51:19.485Z,23.33
2019-03-18T07:53:47.944Z,22.10
2019-03-18T07:56:16.594Z,21.47
2019-03-18T07:58:45.139Z,20.23
2019-03-18T08:01:13.544Z,21.17
2019-03-18T08:03:42.052Z,19.53
2019-03-18T08:06:10.648Z,18.57
2019-03-18T08:08:39.222Z,18.50
2019-03-18T08:11:07.835Z,18.27
2019-03-18T08:13:36.425Z,18.23
2019-03-18T08:16:04.905Z,20.57
2019-03-18T08:18:42.668Z,17.90
2019-03-18T08:21:03.853Z,19.43
2019-03-18T08:23:32.351Z,18.43
2019-03-18T08:26:00.824Z,18.93
2019-03-18T08:28:29.201Z,19.60
2019-03-18T08:30:57.674Z,18.07
2019-03-18T08:33:26.220Z,17.73
2019-03-18T08:35:54.668Z,16.97
2019-03-18T08:38:23.214Z,16.50
2019-03-18T08:40:51.739Z,14.40
2019-03-18T08:43:20.275Z,12.53
2019-03-18T08:45:48.776Z,14.17
2019-03-18T08:48:17.292Z,13.27
2019-03-18T08:50:45.804Z,13.00
2019-03-18T08:53:14.268Z,11.70
2019-03-18T08:55:42.864Z,11.93
2019-03-18T08:58:11.346Z,9.63
2019-03-18T09:00:39.798Z,9.30
2019-03-18T09:03:09.100Z,8.67
2019-03-18T09:05:37.608Z,7.13
2019-03-18T09:08:06.105Z,7.50
2019-03-18T09:10:34.602Z,7.83
2019-03-18T09:13:03.012Z,5.30
2019-03-18T09:15:31.463Z,5.53
2019-03-18T09:17:59.998Z,5.23
2019-03-18T09:20:28.381Z,5.70
2019-03-18T09:22:56.932Z,5.57
2019-03-18T09:25:25.473Z,4.83
2019-03-18T09:27:53.912Z,5.10
2019-03-18T09:30:22.306Z,5.97
2019-03-18T09:32:50.837Z,5.00
2019-03-18T09:35:19.340Z,5.37
2019-03-18T09:37:47.720Z,4.43
2019-03-18T09:40:16.232Z,4.67
2019-03-18T09:42:44.787Z,4.87
2019-03-18T09:45:13.347Z,4.67
2019-03-18T09:47:41.849Z,4.47
2019-03-18T09:50:10.431Z,3.33
2019-03-18T09:52:38.888Z,3.60
2019-03-18T09:55:07.381Z,4.13
2019-03-18T09:57:35.934Z,4.23
2019-03-18T10:00:04.618Z,4.20
2019-03-18T10:02:33.120Z,4.43
2019-03-18T10:05:01.621Z,4.60
2019-03-18T10:07:30.155Z,3.80
2019-03-18T10:09:58.588Z,3.17
2019-03-18T10:12:27.058Z,3.87
2019-03-18T10:14:55.452Z,3.53
2019-03-18T10:17:23.975Z,3.73
2019-03-18T10:19:53.545Z,4.03
2019-03-18T10:22:22.246Z,4.40
2019-03-18T10:24:50.765Z,3.20
2019-03-18T10:27:19.230Z,3.40
2019-03-18T10:29:47.749Z,2.93
2019-03-18T10:32:16.138Z,3.47
2019-03-18T10:34:44.847Z,3.30
2019-03-18T10:37:13.357Z,3.80
2019-03-18T10:39:41.838Z,3.60
2019-03-18T10:42:10.374Z,3.60
2019-03-18T10:44:38.828Z,3.40
2019-03-18T10:47:07.259Z,3.37
2019-03-18T10:49:45.447Z,4.17
2019-03-18T10:52:05.981Z,3.57
2019-03-18T10:54:34.358Z,3.73
2019-03-18T10:57:02.960Z,3.40
2019-03-18T10:59:31.339Z,3.80
2019-03-18T11:01:59.785Z,4.53
2019-03-18T11:04:28.216Z,3.30
2019-03-18T11:06:56.584Z,3.50
2019-03-18T11:09:24.964Z,3.23
2019-03-18T11:11:54.245Z,2.83
2019-03-18T11:14:22.596Z,2.90
2019-03-18T11:16:52.443Z,3.10
2019-03-18T11:19:21.176Z,3.30
2019-03-18T11:21:49.559Z,3.50
2019-03-18T11:24:17.930Z,4.00
2019-03-18T11:26:46.411Z,3.70
2019-03-18T11:29:14.845Z,3.30
2019-03-18T11:31:44.885Z,3.93
2019-03-18T11:34:13.340Z,3.27
2019-03-18T11:36:41.798Z,3.43
2019-03-18T11:39:10.704Z,2.90
2019-03-18T11:41:39.172Z,2.83
2019-03-18T11:44:07.661Z,4.37
2019-03-18T11:46:36.111Z,3.27
2019-03-18T11:49:04.964Z,2.40
2019-03-18T11:51:33.689Z,2.70
2019-03-18T11:54:02.144Z,3.17
2019-03-18T11:56:30.535Z,2.67
2019-03-18T11:58:59.155Z,2.70
2019-03-18T12:01:29.047Z,3.27
2019-03-18T12:03:57.425Z,2.67
2019-03-18T12:06:27.721Z,3.20
2019-03-18T12:08:56.146Z,3.37
2019-03-18T12:11:26.229Z,2.80
2019-03-18T12:13:54.706Z,4.23
2019-03-18T12:16:24.054Z,2.93
2019-03-18T12:18:52.469Z,4.10
2019-03-18T12:21:21.273Z,3.10
2019-03-18T12:23:49.723Z,2.90
2019-03-18T12:26:20.016Z,2.37
2019-03-18T12:28:49.147Z,2.37
2019-03-18T12:31:17.980Z,2.10
2019-03-18T12:33:51.528Z,3.10
2019-03-18T12:36:22.498Z,2.53
2019-03-18T12:38:51.157Z,2.87
2019-03-18T12:41:19.653Z,2.60
2019-03-18T12:43:49.132Z,1.90
2019-03-18T12:46:17.640Z,2.90
2019-03-18T12:48:46.178Z,3.13
2019-03-18T12:51:14.670Z,2.77
2019-03-18T12:53:43.103Z,2.83
2019-03-18T12:56:11.641Z,2.70
2019-03-18T12:58:40.119Z,2.40
2019-03-18T13:01:12.812Z,2.97
2019-03-18T13:03:39.149Z,3.03
2019-03-18T13:06:07.692Z,3.13
2019-03-18T13:08:36.084Z,2.97
2019-03-18T13:11:04.646Z,2.97
2019-03-18T13:13:33.147Z,2.40
2019-03-18T13:16:02.935Z,3.20
2019-03-18T13:18:31.307Z,2.80
2019-03-18T13:21:07.773Z,3.03
2019-03-18T13:23:30.002Z,2.33
2019-03-18T13:25:58.679Z,3.43
2019-03-18T13:28:27.384Z,2.70
2019-03-18T13:30:55.868Z,2.90
2019-03-18T13:33:24.272Z,2.80
2019-03-18T13:35:52.994Z,3.10
2019-03-18T13:38:21.616Z,2.30
2019-03-18T13:40:50.075Z,3.33
2019-03-18T13:43:18.578Z,2.47
2019-03-18T13:45:55.139Z,3.13
2019-03-18T13:48:17.766Z,2.80
2019-03-18T13:50:46.244Z,3.33
2019-03-18T13:53:14.867Z,3.03
2019-03-18T13:55:43.453Z,2.60
2019-03-18T13:58:11.963Z,2.00
2019-03-18T14:00:40.446Z,2.63
2019-03-18T14:03:08.839Z,2.63
2019-03-18T14:05:37.195Z,2.57
2019-03-18T14:08:05.665Z,2.57
2019-03-18T14:10:34.097Z,2.73
2019-03-18T14:13:02.568Z,2.67
2019-03-18T14:15:30.941Z,3.40
2019-03-18T14:17:59.427Z,2.30
2019-03-18T14:20:27.905Z,2.33
2019-03-18T14:22:56.443Z,2.97
2019-03-18T14:25:24.902Z,2.40
2019-03-18T14:27:55.301Z,2.80
2019-03-18T14:30:23.777Z,2.30
2019-03-18T14:32:52.263Z,2.20
2019-03-18T14:35:22.068Z,2.13
2019-03-18T14:37:50.673Z,2.07
2019-03-18T14:40:19.164Z,2.03
2019-03-18T14:42:47.823Z,2.37
2019-03-18T14:45:17.203Z,2.37
2019-03-18T14:47:45.799Z,2.37
2019-03-18T14:50:14.570Z,2.10
2019-03-18T14:52:43.111Z,2.70
2019-03-18T14:55:11.569Z,2.57
2019-03-18T14:57:40.029Z,1.90
2019-03-18T15:00:14.536Z,2.37
2019-03-18T15:02:41.747Z,1.73
2019-03-18T15:05:10.386Z,2.60
2019-03-18T15:07:39.040Z,1.97
2019-03-18T15:10:08.132Z,3.17
2019-03-18T15:12:36.746Z,3.00
2019-03-18T15:15:05.386Z,2.30
2019-03-18T15:17:36.782Z,1.87
2019-03-18T15:20:05.369Z,2.27
2019-03-18T15:22:33.773Z,1.90
2019-03-18T15:25:08.290Z,2.33
2019-03-18T15:27:36.766Z,2.20
2019-03-18T15:30:07.236Z,2.53
2019-03-18T15:32:35.679Z,2.40
2019-03-18T15:35:04.648Z,2.70
2019-03-18T15:37:33.195Z,2.27
2019-03-18T15:40:02.226Z,2.43
2019-03-18T15:42:31.281Z,3.27
2019-03-18T15:45:03.389Z,2.47
2019-03-18T15:47:34.204Z,4.00
2019-03-18T15:50:04.772Z,3.30
2019-03-18T15:52:35.289Z,3.60
2019-03-18T15:55:04.052Z,2.80
2019-03-18T15:57:32.610Z,3.17
2019-03-18T16:00:06.012Z,3.73
2019-03-18T16:02:36.586Z,2.97
2019-03-18T16:05:05.466Z,2.83
2019-03-18T16:07:34.022Z,2.83
2019-03-18T16:10:03.019Z,2.97
2019-03-18T16:12:38.719Z,3.67
2019-03-18T16:15:11.716Z,2.40
2019-03-18T16:17:41.709Z,4.13
2019-03-18T16:20:11.681Z,3.37
2019-03-18T16:22:40.323Z,2.67
2019-03-18T16:25:08.843Z,2.80
2019-03-18T16:27:38.405Z,3.60
2019-03-18T16:30:07.811Z,3.27
2019-03-18T16:32:36.807Z,3.57
2019-03-18T16:35:06.551Z,2.77
2019-03-18T16:37:34.985Z,3.17
2019-03-18T16:40:03.510Z,2.83
2019-03-18T16:42:31.995Z,3.30
2019-03-18T16:45:00.571Z,3.27
2019-03-18T16:47:31.270Z,3.10
2019-03-18T16:50:02.440Z,3.20
2019-03-18T16:52:36.118Z,2.73
2019-03-18T16:55:03.601Z,2.70
2019-03-18T16:57:32.145Z,3.30
2019-03-18T17:00:00.991Z,3.10
2019-03-18T17:02:29.778Z,2.33
2019-03-18T17:04:58.206Z,2.87
2019-03-18T17:07:26.714Z,2.80
2019-03-18T17:09:55.161Z,2.90
2019-03-18T17:12:24.263Z,3.07
2019-03-18T17:14:53.807Z,3.10
2019-03-18T17:17:22.263Z,2.80
2019-03-18T17:19:50.803Z,2.40
2019-03-18T17:22:19.416Z,2.33
2019-03-18T17:24:49.118Z,2.63
2019-03-18T17:27:17.815Z,2.77
2019-03-18T17:29:48.286Z,2.10
2019-03-18T17:32:22.094Z,3.00
2019-03-18T17:34:52.019Z,2.53
2019-03-18T17:37:21.618Z,2.33
2019-03-18T17:39:51.086Z,3.17
2019-03-18T17:42:22.860Z,2.80
2019-03-18T17:44:54.801Z,2.97
2019-03-18T17:47:23.838Z,1.93
2019-03-18T17:49:52.487Z,2.43
2019-03-18T17:52:21.281Z,2.07
2019-03-18T17:54:55.543Z,2.63
2019-03-18T17:57:42.223Z,1.93
2019-03-18T18:00:13.336Z,2.80
2019-03-18T18:02:43.821Z,2.70
2019-03-18T18:05:12.620Z,3.45
2019-03-18T18:07:41.684Z,3.63
2019-03-18T18:10:10.730Z,4.03
2019-03-18T18:12:40.380Z,3.87
2019-03-18T18:15:11.218Z,2.70
2019-03-18T18:17:41.047Z,2.47
2019-03-18T18:20:10.520Z,2.93
2019-03-18T18:22:41.022Z,2.97
2019-03-18T18:25:12.413Z,2.90
2019-03-18T18:27:44.587Z,3.10
2019-03-18T18:30:13.554Z,3.57
2019-03-18T18:32:42.082Z,4.23
2019-03-18T18:35:11.041Z,4.83
2019-03-18T18:37:39.750Z,6.43
2019-03-18T18:40:09.136Z,8.07
2019-03-18T18:42:37.932Z,10.30
2019-03-18T18:45:06.453Z,9.27
2019-03-18T18:47:37.769Z,11.20
2019-03-18T18:50:07.509Z,9.73
2019-03-18T18:52:36.252Z,13.73
2019-03-18T18:55:07.256Z,10.57
2019-03-18T18:57:39.068Z,10.27
2019-03-18T19:00:09.371Z,7.70
2019-03-18T19:02:37.971Z,5.90
2019-03-18T19:05:06.902Z,3.80
2019-03-18T19:07:35.505Z,4.70
2019-03-18T19:10:04.546Z,2.90
2019-03-18T19:12:51.193Z,4.42
2019-03-18T19:15:35.735Z,3.23
2019-03-18T19:18:08.407Z,2.73
2019-03-18T19:20:45.049Z,2.83
2019-03-18T19:23:16.814Z,2.77
2019-03-18T19:25:45.556Z,2.87
2019-03-18T19:28:23.154Z,3.13
2019-03-18T19:30:51.848Z,3.53
2019-03-18T19:33:22.036Z,3.17
2019-03-18T19:35:50.885Z,3.90
2019-03-18T19:38:19.838Z,4.10
2019-03-18T19:40:50.713Z,4.40
2019-03-18T19:43:19.393Z,4.00
2019-03-18T19:45:50.086Z,3.97
2019-03-18T19:48:18.844Z,3.50
2019-03-18T19:50:47.497Z,2.87
2019-03-18T19:53:16.379Z,3.93
2019-03-18T19:55:46.896Z,3.17
2019-03-18T19:58:15.617Z,3.33
2019-03-18T20:00:48.964Z,3.00
2019-03-18T20:03:26.571Z,2.93
2019-03-18T20:06:04.388Z,3.57
2019-03-18T20:08:33.561Z,2.77
2019-03-18T20:11:02.351Z,2.80
2019-03-18T20:13:31.538Z,3.90
2019-03-18T20:16:03.099Z,4.67
2019-03-18T20:18:32.896Z,6.87
2019-03-18T20:21:21.645Z,6.40
2019-03-18T20:24:00.402Z,4.33
2019-03-18T20:26:21.708Z,5.47
2019-03-18T20:28:50.422Z,3.67
2019-03-18T20:31:25.760Z,3.30
2019-03-18T20:33:51.168Z,3.40
2019-03-18T20:36:19.934Z,2.83
2019-03-18T20:38:48.642Z,3.57
2019-03-18T20:41:17.836Z,3.00
2019-03-18T20:43:46.858Z,3.50
2019-03-18T20:46:15.286Z,4.00
2019-03-18T20:48:45.120Z,5.50
2019-03-18T20:51:13.608Z,5.07
2019-03-18T20:53:42.340Z,4.93
2019-03-18T20:56:10.883Z,3.53
2019-03-18T20:58:39.493Z,3.27
2019-03-18T21:01:12.594Z,2.47
2019-03-18T21:03:41.067Z,2.60
2019-03-18T21:06:09.728Z,2.43
2019-03-18T21:08:40.215Z,2.77
2019-03-18T21:11:08.725Z,2.87
2019-03-18T21:13:37.687Z,2.63
2019-03-18T21:16:06.145Z,3.00
2019-03-18T21:18:34.587Z,3.50
2019-03-18T21:21:02.971Z,3.40
2019-03-18T21:23:33.069Z,2.60
2019-03-18T21:26:01.533Z,3.50
2019-03-18T21:28:40.568Z,3.00
2019-03-18T21:30:59.991Z,2.97
2019-03-18T21:33:28.494Z,3.10
2019-03-18T21:35:56.852Z,3.23
2019-03-18T21:38:25.325Z,3.60
2019-03-18T21:40:53.741Z,2.80
2019-03-18T21:43:22.109Z,3.30
2019-03-18T21:45:50.514Z,2.50
2019-03-18T21:48:18.955Z,2.63
2019-03-18T21:50:47.383Z,2.73
2019-03-18T21:53:17.292Z,3.07
2019-03-18T21:55:46.575Z,2.50
2019-03-18T21:58:15.048Z,2.63
2019-03-18T22:00:43.408Z,2.80
2019-03-18T22:03:12.458Z,2.20
2019-03-18T22:05:40.899Z,2.57
2019-03-18T22:08:09.715Z,3.37
2019-03-18T22:10:39.014Z,3.03
2019-03-18T22:13:07.966Z,2.80
2019-03-18T22:15:40.619Z,3.40
2019-03-18T22:18:09.556Z,2.57
2019-03-18T22:20:38.018Z,3.67
2019-03-18T22:23:06.462Z,2.70
2019-03-18T22:25:34.974Z,2.07
2019-03-18T22:28:03.450Z,3.20
2019-03-18T22:30:31.908Z,3.63
2019-03-18T22:33:00.471Z,3.30
2019-03-18T22:35:28.982Z,3.17
2019-03-18T22:37:57.390Z,2.43
2019-03-18T22:40:25.997Z,3.70
2019-03-18T22:42:54.461Z,3.33
2019-03-18T22:45:22.853Z,4.07
2019-03-18T22:47:51.425Z,3.63
2019-03-18T22:50:19.984Z,4.57
2019-03-18T22:52:48.442Z,4.80
2019-03-18T22:55:17.014Z,3.30
2019-03-18T22:57:45.481Z,3.30
2019-03-18T23:00:20.839Z,3.90
2019-03-18T23:03:16.456Z,3.87
2019-03-18T23:05:44.975Z,4.17
2019-03-18T23:08:13.426Z,3.17
2019-03-18T23:10:41.856Z,3.10
2019-03-18T23:13:10.268Z,3.67
2019-03-18T23:15:38.708Z,3.47
2019-03-18T23:18:07.153Z,3.77
2019-03-18T23:20:35.614Z,3.50
2019-03-18T23:23:04.165Z,3.50
2019-03-18T23:25:32.616Z,3.70
2019-03-18T23:28:01.115Z,2.93
2019-03-18T23:30:29.669Z,3.57
2019-03-18T23:32:58.109Z,3.27
2019-03-18T23:35:26.563Z,3.17
2019-03-18T23:37:55.094Z,3.67
2019-03-18T23:40:23.606Z,4.67
2019-03-18T23:42:52.012Z,3.87
2019-03-18T23:45:20.453Z,3.97
2019-03-18T23:47:48.888Z,4.87
2019-03-18T23:50:17.451Z,4.37
2019-03-18T23:52:45.910Z,4.20
2019-03-18T23:55:19.421Z,4.73
2019-03-18T23:57:44.569Z,4.87
